| time (UTC) | temp C | wind direction | speed KPH | gust KPH | rain 1hr cm | rain 24hr cm | rain mn cm | humidity % | barometer mb |
| 20260510035233 | 15 | 302 | 3.2 | 4.8 | 0.00 | 0.00 | 0.00 | 94 | 1017.6 |
| 20260510034729 | 15 | 299 | 3.2 | 4.8 | 0.00 | 0.00 | 0.00 | 94 | 1017.6 |
| 20260510034227 | 15 | 297 | 3.2 | 4.8 | 0.00 | 0.00 | 0.00 | 94 | 1017.7 |
| 20260510033722 | 15 | 291 | 3.2 | 4.8 | 0.00 | 0.00 | 0.00 | 93 | 1017.6 |
| 20260510033221 | 16 | 297 | 3.2 | 4.8 | 0.00 | 0.00 | 0.00 | 93 | 1017.7 |
| 20260510032716 | 16 | 305 | 3.2 | 4.8 | 0.00 | 0.00 | 0.00 | 93 | 1017.5 |
| 20260510032212 | 16 | 300 | 3.2 | 4.8 | 0.00 | 0.00 | 0.00 | 93 | 1017.6 |
| 20260510031707 | 16 | 297 | 3.2 | 4.8 | 0.00 | 0.00 | 0.00 | 93 | 1017.7 |
| 20260510031204 | 16 | 298 | 3.2 | 4.8 | 0.00 | 0.00 | 0.00 | 93 | 1017.7 |
| 20260510030703 | 16 | 299 | 3.2 | 4.8 | 0.00 | 0.00 | 0.00 | 92 | 1017.7 |
| 20260510030202 | 16 | 289 | 3.2 | 4.8 | 0.00 | 0.00 | 0.00 | 92 | 1017.4 |
| 20260510025659 | 16 | 298 | 4.8 | 6.4 | 0.00 | 0.00 | 0.00 | 91 | 1017.6 |
| 20260510025155 | 16 | 299 | 4.8 | 4.8 | 0.00 | 0.00 | 0.00 | 90 | 1017.2 |
| 20260510024653 | 16 | 298 | 3.2 | 4.8 | 0.00 | 0.00 | 0.00 | 90 | 1017.2 |
| 20260510024149 | 16 | 293 | 3.2 | 4.8 | 0.00 | 0.00 | 0.00 | 90 | 1017.4 |
| 20260510023645 | 16 | 297 | 3.2 | 3.2 | 0.00 | 0.00 | 0.00 | 90 | 1017.2 |
| 20260510023143 | 16 | 293 | 1.6 | 3.2 | 0.00 | 0.00 | 0.00 | 90 | 1017.1 |
| 20260510022643 | 16 | 293 | 3.2 | 4.8 | 0.00 | 0.00 | 0.00 | 90 | 1017.1 |
| 20260510022138 | 17 | 290 | 3.2 | 4.8 | 0.00 | 0.00 | 0.00 | 89 | 1016.9 |
| 20260510021634 | 17 | 294 | 3.2 | 4.8 | 0.00 | 0.00 | 0.00 | 89 | 1017.1 |
| 20260510021131 | 17 | 295 | 3.2 | 6.4 | 0.00 | 0.00 | 0.00 | 88 | 1017.1 |
| 20260510020625 | 17 | 297 | 4.8 | 4.8 | 0.00 | 0.00 | 0.00 | 87 | 1016.9 |
| 20260510020121 | 17 | 288 | 3.2 | 3.2 | 0.00 | 0.00 | 0.00 | 87 | 1016.7 |
| 20260510015617 | 17 | 292 | 3.2 | 3.2 | 0.00 | 0.00 | 0.00 | 87 | 1016.5 |
| 20260510015108 | 17 | 298 | 3.2 | 3.2 | 0.00 | 0.00 | 0.00 | 87 | 1016.9 |
| 20260510014603 | 17 | 291 | 3.2 | 3.2 | 0.00 | 0.00 | 0.00 | 87 | 1016.6 |
| 20260510014101 | 17 | 288 | 1.6 | 3.2 | 0.00 | 0.00 | 0.00 | 87 | 1016.4 |
| 20260510013556 | 17 | 297 | 3.2 | 4.8 | 0.00 | 0.00 | 0.00 | 86 | 1016.4 |
| 20260510013052 | 18 | 286 | 3.2 | 3.2 | 0.00 | 0.00 | 0.00 | 86 | 1016.4 |
| 20260510012551 | 18 | 289 | 3.2 | 3.2 | 0.00 | 0.00 | 0.00 | 86 | 1016.3 |
| 20260510012048 | 18 | 290 | 3.2 | 3.2 | 0.00 | 0.00 | 0.00 | 86 | 1016.2 |
| 20260510011547 | 18 | 282 | 1.6 | 4.8 | 0.00 | 0.00 | 0.00 | 86 | 1016.1 |
| 20260510011043 | 18 | 298 | 1.6 | 3.2 | 0.00 | 0.00 | 0.00 | 85 | 1015.9 |
| 20260510010540 | 18 | 284 | 1.6 | 3.2 | 0.00 | 0.00 | 0.00 | 84 | 1015.7 |
| 20260510010037 | 18 | 287 | 1.6 | 3.2 | 0.00 | 0.00 | 0.00 | 83 | 1015.8 |
| 20260510005533 | 18 | 284 | 3.2 | 3.2 | 0.00 | 0.00 | 0.00 | 83 | 1015.7 |
| 20260510005031 | 19 | 285 | 1.6 | 3.2 | 0.00 | 0.00 | 0.00 | 82 | 1015.8 |
| 20260510004528 | 19 | 284 | 1.6 | 4.8 | 0.00 | 0.00 | 0.00 | 82 | 1015.7 |
| 20260510004026 | 19 | 274 | 1.6 | 3.2 | 0.00 | 0.00 | 0.00 | 81 | 1015.6 |
| 20260510003523 | 20 | 261 | 1.6 | 3.2 | 0.00 | 0.00 | 0.00 | 82 | 1015.3 |
| 20260510003018 | 20 | 270 | 1.6 | 3.2 | 0.00 | 0.00 | 0.00 | 80 | 1015.7 |
| 20260510002514 | 20 | 279 | 1.6 | 1.6 | 0.00 | 0.00 | 0.00 | 79 | 1015.4 |
| 20260510002011 | 20 | 280 | 1.6 | 1.6 | 0.00 | 0.00 | 0.00 | 78 | 1015.3 |
| 20260510001508 | 20 | 282 | 1.6 | 3.2 | 0.00 | 0.00 | 0.00 | 77 | 1015.0 |
| 20260510001007 | 20 | 253 | 0.0 | 1.6 | 0.00 | 0.00 | 0.00 | 77 | 1015.2 |
| 20260510000507 | 20 | 267 | 1.6 | 1.6 | 0.00 | 0.00 | 0.00 | 77 | 1015.0 |
| 20260510000004 | 21 | 278 | 1.6 | 3.2 | 0.00 | 0.00 | 0.00 | 76 | 1015.0 |
| 20260509235501 | 22 | 296 | 1.6 | 1.6 | 0.00 | 0.00 | 0.00 | 73 | 1015.2 |
| 20260509234956 | 22 | 189 | 0.0 | 1.6 | 0.00 | 0.00 | 0.00 | 70 | 1015.3 |
| 20260509234454 | 22 | 202 | 0.0 | 1.6 | 0.00 | 0.00 | 0.00 | 71 | 1015.1 |
| 20260509233952 | 22 | 170 | 0.0 | 0.0 | 0.00 | 0.00 | 0.00 | 69 | 1015.1 |
| 20260509233449 | 22 | 250 | 0.0 | 1.6 | 0.00 | 0.00 | 0.00 | 71 | 1014.9 |
| 20260509232944 | 23 | 223 | 0.0 | 1.6 | 0.00 | 0.00 | 0.00 | 72 | 1014.8 |
| 20260509232443 | 23 | 164 | 0.0 | 0.0 | 0.00 | 0.00 | 0.00 | 68 | 1014.6 |
| 20260509231938 | 23 | 248 | 1.6 | 4.8 | 0.00 | 0.00 | 0.00 | 67 | 1014.9 |
| 20260509231435 | 23 | 221 | 1.6 | 3.2 | 0.00 | 0.00 | 0.00 | 66 | 1014.9 |
| 20260509230933 | 23 | 285 | 0.0 | 1.6 | 0.00 | 0.00 | 0.00 | 67 | 1014.8 |
| 20260509230430 | 23 | 208 | 0.0 | 1.6 | 0.00 | 0.00 | 0.00 | 66 | 1014.9 |
| 20260509225926 | 23 | 225 | 1.6 | 3.2 | 0.00 | 0.00 | 0.00 | 67 | 1014.7 |
| 20260509225422 | 23 | 176 | 0.0 | 3.2 | 0.00 | 0.00 | 0.00 | 66 | 1014.8 |
| 20260509224919 | 23 | 210 | 0.0 | 4.8 | 0.00 | 0.00 | 0.00 | 66 | 1014.7 |
| 20260509224414 | 23 | 198 | 0.0 | 3.2 | 0.00 | 0.00 | 0.00 | 66 | 1014.6 |
| 20260509223912 | 24 | 12 | 1.6 | 3.2 | 0.00 | 0.00 | 0.00 | 68 | 1014.5 |
| 20260509223408 | 23 | 245 | 3.2 | 3.2 | 0.00 | 0.00 | 0.00 | 68 | 1014.4 |
| 20260509222906 | 24 | 189 | 3.2 | 3.2 | 0.00 | 0.00 | 0.00 | 69 | 1014.5 |
| 20260509222401 | 24 | 177 | 1.6 | 3.2 | 0.00 | 0.00 | 0.00 | 68 | 1014.4 |
| 20260509221856 | 24 | 205 | 3.2 | 3.2 | 0.00 | 0.00 | 0.00 | 68 | 1014.2 |
| 20260509221353 | 24 | 190 | 6.4 | 6.4 | 0.00 | 0.00 | 0.00 | 67 | 1014.2 |
| 20260509220849 | 24 | 183 | 3.2 | 4.8 | 0.00 | 0.00 | 0.00 | 68 | 1014.2 |
| 20260509220345 | 24 | 214 | 4.8 | 4.8 | 0.00 | 0.00 | 0.00 | 67 | 1014.0 |
| 20260509215840 | 24 | 201 | 1.6 | 4.8 | 0.00 | 0.00 | 0.00 | 67 | 1013.9 |
| 20260509215337 | 24 | 189 | 3.2 | 4.8 | 0.00 | 0.00 | 0.00 | 67 | 1014.0 |
| 20260509214834 | 24 | 188 | 3.2 | 3.2 | 0.00 | 0.00 | 0.00 | 68 | 1014.2 |
| 20260509214331 | 24 | 200 | 1.6 | 3.2 | 0.00 | 0.00 | 0.00 | 68 | 1014.4 |
| 20260509213829 | 24 | 201 | 1.6 | 3.2 | 0.00 | 0.00 | 0.00 | 68 | 1014.0 |
| 20260509213323 | 23 | 187 | 6.4 | 11.3 | 0.00 | 0.00 | 0.00 | 67 | 1014.2 |
| 20260509212821 | 24 | 199 | 6.4 | 6.4 | 0.00 | 0.00 | 0.00 | 66 | 1014.1 |
| 20260509212314 | 24 | 198 | 3.2 | 4.8 | 0.00 | 0.00 | 0.00 | 66 | 1014.2 |
| 20260509211809 | 24 | 189 | 3.2 | 4.8 | 0.00 | 0.00 | 0.00 | 67 | 1014.2 |
| 20260509211305 | 23 | 189 | 4.8 | 6.4 | 0.00 | 0.00 | 0.00 | 67 | 1014.2 |
| 20260509210802 | 24 | 198 | 4.8 | 4.8 | 0.00 | 0.00 | 0.00 | 66 | 1014.1 |
| 20260509210259 | 23 | 165 | 1.6 | 6.4 | 0.00 | 0.00 | 0.00 | 66 | 1014.1 |
| 20260509205758 | 23 | 196 | 6.4 | 9.7 | 0.00 | 0.00 | 0.00 | 65 | 1013.9 |
| 20260509205254 | 24 | 194 | 9.7 | 11.3 | 0.00 | 0.00 | 0.00 | 68 | 1014.4 |
| 20260509204750 | 24 | 187 | 6.4 | 6.4 | 0.00 | 0.00 | 0.00 | 68 | 1014.0 |
| 20260509204246 | 23 | 197 | 6.4 | 9.7 | 0.00 | 0.00 | 0.00 | 66 | 1013.9 |
| 20260509203742 | 24 | 187 | 6.4 | 6.4 | 0.00 | 0.00 | 0.00 | 67 | 1014.0 |
| 20260509203240 | 24 | 191 | 8.0 | 9.7 | 0.00 | 0.00 | 0.00 | 66 | 1013.9 |
| 20260509202737 | 24 | 179 | 6.4 | 9.7 | 0.00 | 0.00 | 0.00 | 64 | 1013.8 |
| 20260509202233 | 24 | 195 | 4.8 | 9.7 | 0.00 | 0.00 | 0.00 | 62 | 1013.6 |
| 20260509201727 | 24 | 195 | 4.8 | 9.7 | 0.00 | 0.00 | 0.00 | 61 | 1013.7 |
| 20260509201224 | 24 | 179 | 11.3 | 12.9 | 0.00 | 0.00 | 0.00 | 65 | 1013.9 |
| 20260509200721 | 25 | 194 | 8.0 | 9.7 | 0.00 | 0.00 | 0.00 | 59 | 1013.8 |
| 20260509200221 | 24 | 189 | 3.2 | 9.7 | 0.00 | 0.00 | 0.00 | 59 | 1013.8 |
| 20260509195718 | 24 | 190 | 9.7 | 9.7 | 0.00 | 0.00 | 0.00 | 63 | 1014.0 |
| 20260509195213 | 24 | 182 | 6.4 | 11.3 | 0.00 | 0.00 | 0.00 | 63 | 1014.4 |
| 20260509194712 | 24 | 184 | 3.2 | 6.4 | 0.00 | 0.00 | 0.00 | 61 | 1014.4 |
| 20260509194209 | 24 | 183 | 6.4 | 11.3 | 0.00 | 0.00 | 0.00 | 60 | 1014.4 |
| 20260509193706 | 24 | 202 | 3.2 | 9.7 | 0.00 | 0.00 | 0.00 | 59 | 1014.6 |
| 20260509193201 | 24 | 167 | 1.6 | 4.8 | 0.00 | 0.00 | 0.00 | 58 | 1014.5 |
| 20260509192657 | 23 | 200 | 4.8 | 11.3 | 0.00 | 0.00 | 0.00 | 62 | 1014.5 |
| 20260509192158 | 24 | 232 | 4.8 | 6.4 | 0.00 | 0.00 | 0.00 | 61 | 1014.5 |
| 20260509191653 | 23 | 181 | 6.4 | 12.9 | 0.00 | 0.00 | 0.00 | 60 | 1014.6 |
| 20260509191150 | 24 | 187 | 6.4 | 6.4 | 0.00 | 0.00 | 0.00 | 61 | 1014.6 |
| 20260509190646 | 23 | 192 | 6.4 | 11.3 | 0.00 | 0.00 | 0.00 | 65 | 1014.9 |
| 20260509190143 | 23 | 197 | 6.4 | 12.9 | 0.00 | 0.00 | 0.00 | 64 | 1014.8 |
| 20260509185641 | 23 | 175 | 3.2 | 6.4 | 0.00 | 0.00 | 0.00 | 61 | 1014.6 |
| 20260509185137 | 23 | 178 | 11.3 | 12.9 | 0.00 | 0.00 | 0.00 | 64 | 1014.9 |
| 20260509184635 | 23 | 206 | 6.4 | 9.7 | 0.00 | 0.00 | 0.00 | 67 | 1015.0 |
| 20260509184131 | 23 | 248 | 3.2 | 9.7 | 0.00 | 0.00 | 0.00 | 64 | 1014.8 |
| 20260509183628 | 23 | 191 | 6.4 | 9.7 | 0.00 | 0.00 | 0.00 | 64 | 1014.9 |
| 20260509183123 | 23 | 169 | 4.8 | 6.4 | 0.00 | 0.00 | 0.00 | 63 | 1014.6 |
| 20260509182620 | 23 | 181 | 6.4 | 11.3 | 0.00 | 0.00 | 0.00 | 64 | 1014.9 |
| 20260509182117 | 23 | 191 | 3.2 | 9.7 | 0.00 | 0.00 | 0.00 | 65 | 1014.9 |
| 20260509181615 | 23 | 172 | 6.4 | 6.4 | 0.00 | 0.00 | 0.00 | 66 | 1014.9 |
| 20260509181111 | 23 | 165 | 3.2 | 4.8 | 0.00 | 0.00 | 0.00 | 65 | 1014.7 |
| 20260509180608 | 23 | 177 | 1.6 | 3.2 | 0.00 | 0.00 | 0.00 | 68 | 1014.8 |
| 20260509180105 | 22 | 173 | 8.0 | 9.7 | 0.00 | 0.00 | 0.00 | 67 | 1014.7 |
| 20260509175600 | 23 | 181 | 3.2 | 4.8 | 0.00 | 0.00 | 0.00 | 69 | 1014.4 |
| 20260509175058 | 23 | 155 | 3.2 | 3.2 | 0.00 | 0.00 | 0.00 | 65 | 1014.5 |
| 20260509174554 | 22 | 128 | 1.6 | 3.2 | 0.00 | 0.00 | 0.00 | 66 | 1014.6 |
| 20260509174049 | 22 | 155 | 1.6 | 3.2 | 0.00 | 0.00 | 0.00 | 66 | 1014.7 |
| 20260509173549 | 22 | 152 | 3.2 | 4.8 | 0.00 | 0.00 | 0.00 | 66 | 1014.9 |
| 20260509173046 | 22 | 178 | 6.4 | 6.4 | 0.00 | 0.00 | 0.00 | 69 | 1015.0 |
| 20260509172543 | 22 | 174 | 4.8 | 9.7 | 0.00 | 0.00 | 0.00 | 67 | 1015.4 |
| 20260509172039 | 22 | 197 | 8.0 | 11.3 | 0.00 | 0.00 | 0.00 | 67 | 1015.3 |
| 20260509171535 | 22 | 171 | 3.2 | 6.4 | 0.00 | 0.00 | 0.00 | 66 | 1015.3 |
| 20260509171032 | 22 | 182 | 8.0 | 9.7 | 0.00 | 0.00 | 0.00 | 72 | 1015.1 |
| 20260509170527 | 21 | 148 | 4.8 | 6.4 | 0.00 | 0.00 | 0.00 | 72 | 1015.3 |
| 20260509170023 | 21 | 158 | 4.8 | 6.4 | 0.00 | 0.00 | 0.00 | 72 | 1015.3 |
| 20260509165522 | 20 | 153 | 4.8 | 6.4 | 0.00 | 0.00 | 0.00 | 73 | 1015.4 |
| 20260509165018 | 21 | 171 | 4.8 | 6.4 | 0.00 | 0.00 | 0.00 | 71 | 1015.3 |
| 20260509164514 | 21 | 152 | 6.4 | 9.7 | 0.00 | 0.00 | 0.00 | 70 | 1015.5 |
| 20260509164010 | 21 | 163 | 3.2 | 4.8 | 0.00 | 0.00 | 0.00 | 72 | 1015.5 |
| 20260509163508 | 21 | 166 | 3.2 | 4.8 | 0.00 | 0.00 | 0.00 | 72 | 1015.6 |
| 20260509163008 | 21 | 173 | 4.8 | 6.4 | 0.00 | 0.00 | 0.00 | 72 | 1015.6 |
| 20260509162506 | 21 | 171 | 3.2 | 6.4 | 0.00 | 0.00 | 0.00 | 73 | 1015.4 |
| 20260509162001 | 21 | 165 | 4.8 | 6.4 | 0.00 | 0.00 | 0.00 | 72 | 1015.6 |
| 20260509161458 | 21 | 171 | 1.6 | 3.2 | 0.00 | 0.00 | 0.00 | 73 | 1015.5 |
| 20260509160953 | 20 | 182 | 4.8 | 9.7 | 0.00 | 0.00 | 0.00 | 74 | 1015.6 |
| 20260509160449 | 20 | 194 | 6.4 | 9.7 | 0.00 | 0.00 | 0.00 | 73 | 1015.8 |
| 20260509155944 | 21 | 183 | 6.4 | 9.7 | 0.00 | 0.00 | 0.00 | 74 | 1015.8 |
| 20260509155441 | 20 | 167 | 4.8 | 9.7 | 0.00 | 0.00 | 0.00 | 74 | 1015.9 |
| 20260509154938 | 20 | 181 | 6.4 | 9.7 | 0.00 | 0.00 | 0.00 | 74 | 1015.9 |
| 20260509154434 | 20 | 195 | 6.4 | 6.4 | 0.00 | 0.00 | 0.00 | 75 | 1015.9 |
| 20260509153931 | 20 | 185 | 9.7 | 12.9 | 0.00 | 0.00 | 0.00 | 77 | 1016.1 |
| 20260509153428 | 19 | 190 | 8.0 | 11.3 | 0.00 | 0.00 | 0.00 | 78 | 1015.9 |
| 20260509152925 | 19 | 179 | 6.4 | 9.7 | 0.00 | 0.00 | 0.00 | 78 | 1016.0 |
| 20260509152421 | 18 | 193 | 6.4 | 9.7 | 0.00 | 0.00 | 0.00 | 79 | 1016.0 |
| 20260509151918 | 18 | 186 | 6.4 | 9.7 | 0.00 | 0.00 | 0.00 | 79 | 1016.1 |
| 20260509151414 | 18 | 187 | 4.8 | 6.4 | 0.00 | 0.00 | 0.00 | 79 | 1016.0 |
| 20260509150912 | 18 | 202 | 6.4 | 9.7 | 0.00 | 0.00 | 0.00 | 79 | 1015.9 |
| 20260509150409 | 18 | 185 | 8.0 | 11.3 | 0.00 | 0.00 | 0.00 | 80 | 1015.9 |
| 20260509145908 | 18 | 188 | 8.0 | 9.7 | 0.00 | 0.00 | 0.00 | 81 | 1015.8 |
| 20260509145407 | 18 | 188 | 11.3 | 11.3 | 0.00 | 0.00 | 0.00 | 82 | 1015.9 |
| 20260509144903 | 18 | 186 | 4.8 | 9.7 | 0.00 | 0.00 | 0.00 | 80 | 1015.9 |
| 20260509144400 | 18 | 175 | 6.4 | 9.7 | 0.00 | 0.00 | 0.00 | 81 | 1016.0 |
| 20260509143857 | 18 | 177 | 6.4 | 9.7 | 0.00 | 0.00 | 0.00 | 82 | 1016.0 |
| 20260509143355 | 18 | 190 | 6.4 | 9.7 | 0.00 | 0.00 | 0.00 | 82 | 1016.1 |
| 20260509142851 | 18 | 198 | 8.0 | 11.3 | 0.00 | 0.00 | 0.00 | 82 | 1015.9 |
| 20260509142347 | 18 | 178 | 6.4 | 9.7 | 0.00 | 0.00 | 0.00 | 81 | 1015.9 |
| 20260509141843 | 18 | 195 | 4.8 | 9.7 | 0.00 | 0.00 | 0.00 | 80 | 1015.6 |
| 20260509141340 | 18 | 161 | 3.2 | 4.8 | 0.00 | 0.00 | 0.00 | 81 | 1015.7 |
| 20260509140837 | 18 | 167 | 4.8 | 6.4 | 0.00 | 0.00 | 0.00 | 81 | 1015.6 |
| 20260509140334 | 18 | 164 | 3.2 | 6.4 | 0.00 | 0.00 | 0.00 | 81 | 1015.6 |
| 20260509135832 | 18 | 165 | 3.2 | 6.4 | 0.00 | 0.00 | 0.00 | 80 | 1015.5 |
| 20260509135329 | 18 | 178 | 4.8 | 6.4 | 0.00 | 0.00 | 0.00 | 81 | 1015.4 |
| 20260509134826 | 18 | 164 | 4.8 | 4.8 | 0.00 | 0.00 | 0.00 | 82 | 1015.2 |
| 20260509134323 | 17 | 181 | 3.2 | 6.4 | 0.00 | 0.00 | 0.00 | 83 | 1015.5 |
| 20260509133820 | 17 | 177 | 4.8 | 9.7 | 0.00 | 0.00 | 0.00 | 84 | 1015.5 |
| 20260509133317 | 17 | 197 | 3.2 | 6.4 | 0.00 | 0.00 | 0.00 | 83 | 1015.3 |
| 20260509132815 | 17 | 194 | 3.2 | 6.4 | 0.00 | 0.00 | 0.00 | 82 | 1015.5 |
| 20260509132314 | 17 | 169 | 4.8 | 6.4 | 0.00 | 0.00 | 0.00 | 83 | 1015.3 |
| 20260509131810 | 17 | 175 | 6.4 | 6.4 | 0.00 | 0.00 | 0.00 | 84 | 1015.4 |
| 20260509131307 | 17 | 171 | 4.8 | 4.8 | 0.00 | 0.00 | 0.00 | 85 | 1015.4 |
| 20260509130803 | 16 | 182 | 4.8 | 4.8 | 0.00 | 0.00 | 0.00 | 87 | 1015.3 |
| 20260509130259 | 16 | 168 | 4.8 | 4.8 | 0.00 | 0.00 | 0.00 | 86 | 1015.3 |
| 20260509125756 | 16 | 166 | 3.2 | 4.8 | 0.00 | 0.00 | 0.00 | 87 | 1015.3 |
| 20260509125252 | 16 | 173 | 1.6 | 3.2 | 0.00 | 0.00 | 0.00 | 87 | 1015.4 |
| 20260509124749 | 16 | 165 | 3.2 | 4.8 | 0.00 | 0.00 | 0.00 | 87 | 1015.9 |
| 20260509124245 | 15 | 178 | 3.2 | 4.8 | 0.00 | 0.00 | 0.00 | 88 | 1015.7 |
| 20260509123744 | 15 | 182 | 3.2 | 4.8 | 0.00 | 0.00 | 0.00 | 88 | 1015.9 |
| 20260509123241 | 15 | 196 | 4.8 | 4.8 | 0.00 | 0.00 | 0.00 | 88 | 1015.7 |
| 20260509122736 | 15 | 190 | 3.2 | 6.4 | 0.00 | 0.00 | 0.00 | 87 | 1015.3 |
| 20260509122233 | 15 | 190 | 3.2 | 6.4 | 0.00 | 0.00 | 0.00 | 88 | 1015.3 |
| 20260509121730 | 15 | 194 | 6.4 | 6.4 | 0.00 | 0.00 | 0.00 | 89 | 1015.3 |
| 20260509121227 | 15 | 198 | 6.4 | 6.4 | 0.00 | 0.00 | 0.00 | 89 | 1015.5 |
| 20260509120726 | 15 | 156 | 1.6 | 4.8 | 0.00 | 0.00 | 0.00 | 89 | 1015.4 |
| 20260509120223 | 15 | 199 | 3.2 | 4.8 | 0.00 | 0.00 | 0.00 | 89 | 1015.2 |
| 20260509115721 | 15 | 188 | 3.2 | 4.8 | 0.00 | 0.00 | 0.00 | 89 | 1015.2 |
| 20260509115218 | 15 | 224 | 3.2 | 9.7 | 0.00 | 0.00 | 0.00 | 90 | 1015.2 |
| 20260509114716 | 15 | 196 | 4.8 | 6.4 | 0.00 | 0.00 | 0.00 | 90 | 1015.3 |
| 20260509114215 | 15 | 195 | 3.2 | 6.4 | 0.00 | 0.00 | 0.00 | 91 | 1015.1 |
| 20260509113713 | 15 | 192 | 4.8 | 6.4 | 0.00 | 0.00 | 0.00 | 91 | 1015.1 |
| 20260509113210 | 15 | 198 | 4.8 | 9.7 | 0.00 | 0.00 | 0.00 | 93 | 1015.3 |
| 20260509112706 | 14 | 201 | 4.8 | 4.8 | 0.00 | 0.00 | 0.00 | 93 | 1015.3 |
| 20260509112203 | 15 | 208 | 3.2 | 4.8 | 0.00 | 0.00 | 0.00 | 94 | 1015.1 |
| 20260509111700 | 14 | 185 | 6.4 | 9.7 | 0.00 | 0.00 | 0.00 | 95 | 1014.9 |
| 20260509111157 | 13 | 239 | 0.0 | 1.6 | 0.00 | 0.00 | 0.00 | 95 | 1014.9 |
| 20260509110654 | 13 | 203 | 0.0 | 0.0 | 0.00 | 0.00 | 0.00 | 95 | 1015.2 |
| 20260509110151 | 13 | 214 | 0.0 | 0.0 | 0.00 | 0.00 | 0.00 | 95 | 1015.3 |
| 20260509105649 | 13 | 289 | 3.2 | 3.2 | 0.00 | 0.00 | 0.00 | 95 | 1015.2 |
| 20260509105146 | 13 | 270 | 1.6 | 1.6 | 0.00 | 0.00 | 0.00 | 95 | 1015.1 |
| 20260509104643 | 13 | 307 | 1.6 | 3.2 | 0.00 | 0.00 | 0.00 | 95 | 1015.2 |
| 20260509104140 | 13 | 284 | 1.6 | 1.6 | 0.00 | 0.00 | 0.00 | 95 | 1015.1 |
| 20260509103638 | 13 | 294 | 3.2 | 3.2 | 0.00 | 0.00 | 0.00 | 96 | 1015.0 |
| 20260509103136 | 13 | 290 | 0.0 | 1.6 | 0.00 | 0.00 | 0.00 | 96 | 1015.1 |
| 20260509102633 | 13 | 289 | 1.6 | 3.2 | 0.00 | 0.00 | 0.00 | 96 | 1015.1 |
| 20260509102130 | 13 | 282 | 1.6 | 3.2 | 0.00 | 0.00 | 0.00 | 96 | 1014.9 |
| 20260509101626 | 12 | 291 | 3.2 | 3.2 | 0.00 | 0.00 | 0.00 | 95 | 1014.9 |
| 20260509101123 | 12 | 314 | 1.6 | 3.2 | 0.00 | 0.00 | 0.00 | 95 | 1015.1 |
| 20260509100620 | 12 | 292 | 3.2 | 6.4 | 0.00 | 0.00 | 0.00 | 95 | 1015.2 |
| 20260509100118 | 12 | 300 | 3.2 | 4.8 | 0.00 | 0.00 | 0.00 | 95 | 1015.0 |
| 20260509095614 | 12 | 304 | 3.2 | 3.2 | 0.00 | 0.00 | 0.00 | 94 | 1014.9 |
| 20260509095112 | 13 | 269 | 1.6 | 1.6 | 0.00 | 0.00 | 0.00 | 94 | 1014.9 |
| 20260509094607 | 13 | 265 | 1.6 | 3.2 | 0.00 | 0.00 | 0.00 | 94 | 1014.9 |
| 20260509094105 | 13 | 277 | 1.6 | 3.2 | 0.00 | 0.00 | 0.00 | 94 | 1014.8 |
| 20260509093603 | 13 | 337 | 0.0 | 1.6 | 0.00 | 0.00 | 0.00 | 93 | 1014.8 |
| 20260509093100 | 13 | 244 | 0.0 | 1.6 | 0.00 | 0.00 | 0.00 | 93 | 1014.9 |
| 20260509092558 | 13 | 265 | 1.6 | 3.2 | 0.00 | 0.00 | 0.00 | 93 | 1014.7 |
| 20260509092056 | 13 | 289 | 1.6 | 1.6 | 0.00 | 0.00 | 0.00 | 93 | 1015.2 |
| 20260509091554 | 13 | 205 | 0.0 | 1.6 | 0.00 | 0.00 | 0.00 | 93 | 1015.4 |
| 20260509091050 | 13 | 276 | 1.6 | 1.6 | 0.00 | 0.00 | 0.00 | 93 | 1015.0 |
| 20260509090547 | 13 | 229 | 3.2 | 4.8 | 0.00 | 0.00 | 0.00 | 94 | 1015.0 |
| 20260509090045 | 13 | 160 | 0.0 | 1.6 | 0.00 | 0.00 | 0.00 | 94 | 1015.1 |
| 20260509085542 | 13 | 197 | 3.2 | 6.4 | 0.00 | 0.00 | 0.00 | 95 | 1015.1 |
| 20260509085038 | 13 | 195 | 4.8 | 4.8 | 0.00 | 0.00 | 0.00 | 96 | 1015.3 |
| 20260509084535 | 13 | 183 | 0.0 | 3.2 | 0.00 | 0.00 | 0.00 | 96 | 1015.3 |
| 20260509084032 | 13 | 299 | 1.6 | 4.8 | 0.00 | 0.00 | 0.00 | 96 | 1015.7 |
| 20260509083530 | 12 | 269 | 1.6 | 3.2 | 0.00 | 0.00 | 0.00 | 97 | 1015.7 |
| 20260509083026 | 12 | 311 | 1.6 | 3.2 | 0.00 | 0.00 | 0.00 | 97 | 1015.6 |
| 20260509082524 | 12 | 285 | 3.2 | 3.2 | 0.00 | 0.00 | 0.00 | 97 | 1015.4 |
| 20260509082021 | 12 | 279 | 1.6 | 1.6 | 0.00 | 0.00 | 0.00 | 97 | 1015.2 |
| 20260509081518 | 12 | 286 | 1.6 | 3.2 | 0.00 | 0.00 | 0.00 | 97 | 1015.2 |
| 20260509081015 | 12 | 297 | 1.6 | 3.2 | 0.00 | 0.00 | 0.00 | 97 | 1015.1 |
| 20260509080513 | 12 | 281 | 1.6 | 3.2 | 0.00 | 0.00 | 0.00 | 97 | 1015.2 |
| 20260509080011 | 12 | 295 | 1.6 | 3.2 | 0.00 | 0.00 | 0.00 | 98 | 1015.4 |
| 20260509075508 | 12 | 300 | 3.2 | 3.2 | 0.00 | 0.00 | 0.00 | 98 | 1015.4 |
| 20260509075005 | 12 | 294 | 3.2 | 3.2 | 0.00 | 0.00 | 0.00 | 97 | 1015.3 |
| 20260509074502 | 12 | 275 | 1.6 | 3.2 | 0.00 | 0.00 | 0.00 | 97 | 1015.2 |
| 20260509073959 | 12 | 277 | 1.6 | 3.2 | 0.00 | 0.00 | 0.00 | 97 | 1015.2 |
| 20260509073455 | 12 | 301 | 3.2 | 3.2 | 0.00 | 0.00 | 0.00 | 98 | 1015.1 |
| 20260509072951 | 12 | 299 | 1.6 | 3.2 | 0.00 | 0.00 | 0.00 | 97 | 1015.0 |
| 20260509072449 | 12 | 301 | 1.6 | 4.8 | 0.00 | 0.00 | 0.00 | 98 | 1014.9 |
| 20260509071945 | 12 | 296 | 3.2 | 3.2 | 0.00 | 0.00 | 0.00 | 97 | 1014.7 |
| 20260509071441 | 12 | 335 | 1.6 | 3.2 | 0.00 | 0.00 | 0.00 | 97 | 1014.7 |
| 20260509070940 | 12 | 304 | 1.6 | 3.2 | 0.00 | 0.00 | 0.00 | 97 | 1014.7 |
| 20260509070436 | 12 | 283 | 1.6 | 1.6 | 0.00 | 0.00 | 0.00 | 97 | 1014.8 |
| 20260509065932 | 12 | 256 | 1.6 | 3.2 | 0.00 | 0.00 | 0.00 | 97 | 1015.2 |
| 20260509065428 | 12 | 300 | 1.6 | 3.2 | 0.00 | 0.00 | 0.00 | 97 | 1015.0 |
| 20260509064924 | 12 | 317 | 1.6 | 4.8 | 0.00 | 0.00 | 0.00 | 98 | 1015.3 |
| 20260509064422 | 12 | 298 | 1.6 | 3.2 | 0.00 | 0.00 | 0.00 | 97 | 1015.5 |
| 20260509063920 | 11 | 291 | 1.6 | 3.2 | 0.00 | 0.00 | 0.00 | 97 | 1015.4 |
| 20260509063415 | 12 | 299 | 3.2 | 3.2 | 0.00 | 0.00 | 0.00 | 97 | 1015.4 |
| 20260509062907 | 12 | 290 | 1.6 | 3.2 | 0.00 | 0.00 | 0.00 | 97 | 1015.2 |
| 20260509062405 | 11 | 291 | 3.2 | 4.8 | 0.00 | 0.00 | 0.00 | 97 | 1015.5 |
| 20260509061902 | 11 | 298 | 3.2 | 3.2 | 0.00 | 0.00 | 0.00 | 97 | 1015.8 |
| 20260509061400 | 11 | 303 | 3.2 | 4.8 | 0.00 | 0.00 | 0.00 | 97 | 1015.6 |
| 20260509060856 | 11 | 293 | 3.2 | 4.8 | 0.00 | 0.00 | 0.00 | 96 | 1015.8 |
| 20260509060353 | 11 | 303 | 3.2 | 4.8 | 0.00 | 0.00 | 0.00 | 96 | 1015.6 |
| 20260509055848 | 11 | 301 | 3.2 | 3.2 | 0.00 | 0.00 | 0.00 | 96 | 1015.8 |
| 20260509055343 | 11 | 299 | 3.2 | 4.8 | 0.00 | 0.00 | 0.00 | 96 | 1015.9 |
| 20260509054841 | 11 | 297 | 3.2 | 6.4 | 0.00 | 0.00 | 0.00 | 96 | 1015.8 |
| 20260509054337 | 11 | 296 | 3.2 | 4.8 | 0.00 | 0.00 | 0.00 | 96 | 1016.0 |
| 20260509053836 | 11 | 290 | 3.2 | 4.8 | 0.00 | 0.00 | 0.00 | 96 | 1016.2 |
| 20260509053333 | 11 | 293 | 4.8 | 4.8 | 0.00 | 0.00 | 0.00 | 95 | 1016.2 |
| 20260509052831 | 11 | 299 | 4.8 | 4.8 | 0.00 | 0.00 | 0.00 | 95 | 1016.1 |
| 20260509052328 | 11 | 294 | 4.8 | 4.8 | 0.00 | 0.00 | 0.00 | 94 | 1016.3 |
| 20260509051826 | 11 | 287 | 3.2 | 4.8 | 0.00 | 0.00 | 0.00 | 94 | 1016.1 |
| 20260509051324 | 11 | 301 | 3.2 | 4.8 | 0.00 | 0.00 | 0.00 | 93 | 1016.1 |
| 20260509050820 | 11 | 295 | 3.2 | 4.8 | 0.00 | 0.00 | 0.00 | 93 | 1016.3 |
| 20260509050317 | 12 | 292 | 4.8 | 4.8 | 0.00 | 0.00 | 0.00 | 93 | 1016.3 |
| 20260509045814 | 12 | 300 | 3.2 | 4.8 | 0.00 | 0.00 | 0.00 | 93 | 1016.2 |
| 20260509045310 | 12 | 285 | 3.2 | 4.8 | 0.00 | 0.00 | 0.00 | 93 | 1016.2 |
| 20260509044808 | 12 | 309 | 3.2 | 4.8 | 0.00 | 0.00 | 0.00 | 92 | 1016.2 |
| 20260509044305 | 12 | 297 | 3.2 | 4.8 | 0.00 | 0.00 | 0.00 | 92 | 1016.2 |
| 20260509043802 | 12 | 304 | 4.8 | 4.8 | 0.00 | 0.00 | 0.00 | 91 | 1016.3 |
| 20260509043258 | 12 | 298 | 4.8 | 6.4 | 0.00 | 0.00 | 0.00 | 91 | 1016.5 |
| 20260509042754 | 12 | 286 | 3.2 | 4.8 | 0.00 | 0.00 | 0.00 | 91 | 1016.6 |
| 20260509042250 | 12 | 299 | 3.2 | 3.2 | 0.00 | 0.00 | 0.00 | 91 | 1016.6 |
| 20260509041747 | 12 | 298 | 3.2 | 6.4 | 0.00 | 0.00 | 0.00 | 90 | 1016.6 |
| 20260509041244 | 13 | 304 | 3.2 | 4.8 | 0.00 | 0.00 | 0.00 | 90 | 1016.6 |
| 20260509040743 | 13 | 300 | 3.2 | 4.8 | 0.00 | 0.00 | 0.00 | 89 | 1016.7 |
| 20260509040239 | 13 | 307 | 3.2 | 3.2 | 0.00 | 0.00 | 0.00 | 89 | 1016.7 |
| 20260509035736 | 13 | 292 | 3.2 | 3.2 | 0.00 | 0.00 | 0.00 | 89 | 1016.8 |